createdAt,value
2022-12-04T00:02:11.133Z,93.25
2022-12-04T00:04:37.750Z,93.50
2022-12-04T00:07:04.790Z,94.19
2022-12-04T00:09:31.203Z,94.42
2022-12-04T00:11:58.660Z,93.91
2022-12-04T00:14:25.080Z,93.69
2022-12-04T00:16:51.643Z,94.34
2022-12-04T00:19:18.255Z,94.80
2022-12-04T00:21:45.243Z,94.89
2022-12-04T00:24:12.547Z,94.74
2022-12-04T00:26:39.060Z,94.84
2022-12-04T00:29:05.686Z,95.10
2022-12-04T00:31:32.445Z,95.32
2022-12-04T00:34:00.359Z,96.57
2022-12-04T00:36:29.011Z,96.55
2022-12-04T00:38:56.415Z,96.85
2022-12-04T00:41:25.034Z,97.00
2022-12-04T00:43:52.510Z,96.85
2022-12-04T00:46:19.487Z,96.77
2022-12-04T00:48:46.344Z,96.20
2022-12-04T00:51:21.024Z,96.66
2022-12-04T00:53:48.002Z,96.15
2022-12-04T00:56:18.684Z,96.58
2022-12-04T00:58:45.774Z,96.87
2022-12-04T01:01:18.403Z,96.97
2022-12-04T01:03:45.370Z,96.44
2022-12-04T01:06:25.375Z,96.72
2022-12-04T01:08:54.395Z,96.86
2022-12-04T01:11:22.621Z,97.13
2022-12-04T01:13:49.414Z,97.44
2022-12-04T01:16:17.937Z,97.19
2022-12-04T01:18:44.861Z,97.23
2022-12-04T01:21:12.148Z,97.92
2022-12-04T01:23:38.728Z,97.73
2022-12-04T01:26:05.733Z,97.75
2022-12-04T01:28:32.479Z,98.17
2022-12-04T01:31:06.206Z,97.69
2022-12-04T01:33:35.043Z,97.93
2022-12-04T01:36:05.956Z,98.13
2022-12-04T01:38:33.656Z,98.49
2022-12-04T01:41:00.331Z,98.21
2022-12-04T01:43:28.798Z,98.61
2022-12-04T01:45:57.005Z,98.68
2022-12-04T01:48:52.715Z,98.16
2022-12-04T01:51:25.182Z,98.19
2022-12-04T01:53:55.941Z,98.26
2022-12-04T01:56:27.502Z,98.49
2022-12-04T01:58:58.871Z,98.00
2022-12-04T02:01:29.158Z,98.36
2022-12-04T02:03:55.904Z,98.45
2022-12-04T02:06:22.418Z,98.85
2022-12-04T02:08:48.855Z,98.88
2022-12-04T02:11:45.397Z,99.31
2022-12-04T02:14:46.451Z,100.00
2022-12-04T02:17:19.130Z,99.76
2022-12-04T02:20:04.661Z,100.00
2022-12-04T02:22:45.412Z,99.92
2022-12-04T02:25:52.023Z,100.00
2022-12-04T02:28:46.311Z,100.00
2022-12-04T02:31:19.250Z,100.00
2022-12-04T02:33:54.084Z,100.00
2022-12-04T02:36:28.649Z,100.00
2022-12-04T02:39:10.719Z,100.00
2022-12-04T02:41:46.989Z,100.00
2022-12-04T02:44:23.789Z,100.00
2022-12-04T02:46:57.164Z,100.00
2022-12-04T02:49:37.664Z,100.00
2022-12-04T02:52:10.054Z,100.00
2022-12-04T02:54:41.346Z,100.00
2022-12-04T02:57:13.906Z,100.00
2022-12-04T02:59:45.395Z,100.00
2022-12-04T03:02:23.433Z,100.00
2022-12-04T03:04:51.917Z,100.00
2022-12-04T03:07:26.038Z,100.00
2022-12-04T03:09:59.409Z,100.00
2022-12-04T03:12:50.243Z,100.00
2022-12-04T03:15:23.330Z,100.00
2022-12-04T03:18:01.855Z,100.00
2022-12-04T03:20:32.479Z,100.00
2022-12-04T03:23:09.674Z,100.00
2022-12-04T03:25:47.436Z,100.00
2022-12-04T03:28:32.380Z,100.00
2022-12-04T03:31:05.744Z,100.00
2022-12-04T03:33:41.845Z,100.00
2022-12-04T03:36:18.444Z,100.00
2022-12-04T03:38:54.364Z,100.00
2022-12-04T03:41:27.033Z,100.00
2022-12-04T03:44:13.124Z,100.00
2022-12-04T03:46:54.818Z,100.00
2022-12-04T03:49:31.734Z,100.00
2022-12-04T03:52:16.947Z,100.00
2022-12-04T03:54:53.695Z,100.00
2022-12-04T03:57:27.352Z,100.00
2022-12-04T04:00:08.754Z,100.00
2022-12-04T04:02:39.690Z,100.00
2022-12-04T04:05:09.851Z,100.00
2022-12-04T04:08:18.589Z,100.00
2022-12-04T04:10:45.579Z,100.00
2022-12-04T04:13:35.538Z,100.00
2022-12-04T04:16:24.404Z,100.00
2022-12-04T04:19:11.816Z,100.00
2022-12-04T04:22:07.919Z,100.00
2022-12-04T04:24:34.695Z,100.00
2022-12-04T04:27:01.760Z,100.00
2022-12-04T04:29:28.388Z,100.00
2022-12-04T04:32:03.594Z,100.00
2022-12-04T04:34:57.875Z,100.00
2022-12-04T04:37:30.607Z,100.00
2022-12-04T04:40:05.834Z,100.00
2022-12-04T04:42:48.651Z,100.00
2022-12-04T04:45:25.613Z,100.00
2022-12-04T04:48:00.779Z,100.00
2022-12-04T04:50:28.919Z,100.00
2022-12-04T04:53:01.312Z,100.00
2022-12-04T04:55:28.991Z,100.00
2022-12-04T04:58:07.050Z,100.00
2022-12-04T05:00:33.691Z,100.00
2022-12-04T05:03:00.243Z,100.00
2022-12-04T05:05:26.747Z,100.00
2022-12-04T05:07:53.272Z,100.00
2022-12-04T05:10:19.753Z,100.00
2022-12-04T05:12:46.230Z,100.00
2022-12-04T05:15:12.692Z,100.00
2022-12-04T05:17:39.131Z,100.00
2022-12-04T05:20:06.436Z,100.00
2022-12-04T05:22:34.957Z,100.00
2022-12-04T05:25:02.705Z,100.00
2022-12-04T05:27:30.276Z,100.00
2022-12-04T05:29:58.380Z,100.00
2022-12-04T05:32:27.431Z,100.00
2022-12-04T05:34:55.518Z,100.00
2022-12-04T05:37:23.042Z,100.00
2022-12-04T05:39:49.546Z,100.00
2022-12-04T05:42:16.062Z,100.00
2022-12-04T05:44:42.671Z,100.00
2022-12-04T05:47:09.268Z,100.00
2022-12-04T05:49:36.115Z,100.00
2022-12-04T05:52:04.787Z,100.00
2022-12-04T05:54:31.766Z,100.00
2022-12-04T05:56:58.399Z,100.00
2022-12-04T05:59:24.828Z,100.00
2022-12-04T06:01:51.372Z,100.00
2022-12-04T06:04:17.822Z,100.00
2022-12-04T06:06:44.331Z,100.00
2022-12-04T06:09:11.929Z,100.00
2022-12-04T06:11:39.888Z,100.00
2022-12-04T06:14:08.803Z,100.00
2022-12-04T06:16:38.091Z,100.00
2022-12-04T06:19:11.289Z,100.00
2022-12-04T06:21:40.351Z,100.00
2022-12-04T06:24:07.790Z,100.00
2022-12-04T06:26:34.733Z,100.00
2022-12-04T06:29:02.325Z,100.00
2022-12-04T06:31:29.848Z,100.00
2022-12-04T06:33:57.699Z,100.00
2022-12-04T06:36:24.993Z,100.00
2022-12-04T06:38:54.311Z,100.00
2022-12-04T06:41:21.681Z,100.00
2022-12-04T06:43:48.830Z,100.00
2022-12-04T06:46:18.783Z,100.00
2022-12-04T06:48:45.466Z,100.00
2022-12-04T06:51:15.016Z,100.00
2022-12-04T06:53:42.523Z,100.00
2022-12-04T06:56:12.816Z,100.00
2022-12-04T06:58:39.222Z,100.00
2022-12-04T07:01:08.101Z,100.00
2022-12-04T07:03:34.864Z,100.00
2022-12-04T07:06:16.566Z,100.00
2022-12-04T07:08:45.079Z,100.00
2022-12-04T07:11:12.439Z,100.00
2022-12-04T07:13:39.779Z,100.00
2022-12-04T07:16:08.187Z,100.00
2022-12-04T07:18:36.294Z,100.00
2022-12-04T07:21:12.091Z,100.00
2022-12-04T07:23:38.644Z,100.00
2022-12-04T07:26:10.232Z,100.00
2022-12-04T07:28:37.682Z,100.00
2022-12-04T07:31:09.302Z,100.00
2022-12-04T07:33:36.499Z,100.00
2022-12-04T07:36:05.284Z,100.00
2022-12-04T07:38:32.857Z,100.00
2022-12-04T07:41:00.021Z,100.00
2022-12-04T07:43:29.912Z,100.00
2022-12-04T07:45:59.093Z,100.00
2022-12-04T07:48:30.181Z,100.00
2022-12-04T07:51:07.219Z,100.00
2022-12-04T07:53:34.854Z,100.00
2022-12-04T07:56:02.981Z,100.00
2022-12-04T07:58:29.494Z,100.00
2022-12-04T08:00:56.124Z,100.00
2022-12-04T08:03:22.627Z,100.00
2022-12-04T08:05:49.102Z,100.00
2022-12-04T08:08:15.545Z,100.00
2022-12-04T08:10:42.112Z,100.00
2022-12-04T08:13:08.625Z,100.00
2022-12-04T08:15:35.346Z,100.00
2022-12-04T08:18:01.773Z,100.00
2022-12-04T08:20:28.283Z,99.69
2022-12-04T08:22:54.818Z,100.00
2022-12-04T08:25:21.274Z,100.00
2022-12-04T08:27:47.987Z,99.83
2022-12-04T08:30:14.554Z,100.00
2022-12-04T08:32:41.105Z,100.00
2022-12-04T08:35:08.070Z,100.00
2022-12-04T08:37:35.039Z,99.70
2022-12-04T08:40:02.904Z,99.86
2022-12-04T08:42:29.375Z,100.00
2022-12-04T08:44:55.825Z,100.00
2022-12-04T08:47:22.396Z,99.60
2022-12-04T08:49:48.874Z,99.67
2022-12-04T08:52:15.421Z,99.77
2022-12-04T08:54:41.871Z,99.74
2022-12-04T08:57:08.387Z,99.62
2022-12-04T08:59:35.271Z,99.31
2022-12-04T09:02:01.815Z,99.42
2022-12-04T09:04:28.458Z,98.55
2022-12-04T09:06:54.975Z,98.17
2022-12-04T09:09:21.483Z,98.50
2022-12-04T09:11:48.478Z,98.69
2022-12-04T09:14:14.959Z,98.54
2022-12-04T09:16:41.666Z,98.98
2022-12-04T09:19:08.179Z,98.46
2022-12-04T09:21:34.797Z,98.58
2022-12-04T09:24:01.865Z,98.39
2022-12-04T09:26:31.098Z,98.70
2022-12-04T09:28:59.696Z,98.47
2022-12-04T09:31:26.614Z,98.29
2022-12-04T09:33:53.791Z,98.69
2022-12-04T09:36:20.877Z,98.72
2022-12-04T09:38:52.808Z,98.69
2022-12-04T09:41:38.091Z,98.37
2022-12-04T09:44:32.432Z,99.07
2022-12-04T09:47:00.535Z,98.72
2022-12-04T09:49:48.662Z,99.47
2022-12-04T09:52:40.215Z,99.17
2022-12-04T09:55:14.124Z,98.82
2022-12-04T09:57:49.974Z,99.20
2022-12-04T10:00:19.717Z,98.92
2022-12-04T10:03:04.110Z,98.60
2022-12-04T10:05:55.263Z,99.18
2022-12-04T10:08:37.864Z,98.77
2022-12-04T10:11:24.683Z,98.73
2022-12-04T10:14:31.902Z,98.83
2022-12-04T10:17:32.529Z,99.13
2022-12-04T10:20:33.231Z,98.80
2022-12-04T10:23:14.414Z,98.47
2022-12-04T10:25:42.802Z,98.86
2022-12-04T10:28:23.679Z,99.57
2022-12-04T10:30:52.826Z,99.67
2022-12-04T10:33:37.899Z,98.38
2022-12-04T10:36:06.181Z,98.81
2022-12-04T10:38:39.116Z,98.68
2022-12-04T10:41:17.906Z,99.23
2022-12-04T10:43:46.808Z,99.47
2022-12-04T10:46:18.210Z,98.98
2022-12-04T10:48:48.567Z,99.28
2022-12-04T10:51:21.387Z,99.68
2022-12-04T10:53:49.384Z,99.69
2022-12-04T10:56:24.279Z,99.83
2022-12-04T10:59:05.665Z,100.00
2022-12-04T11:01:34.338Z,100.00
2022-12-04T11:04:09.179Z,100.00
2022-12-04T11:06:35.973Z,100.00
2022-12-04T11:09:04.248Z,100.00
2022-12-04T11:11:34.158Z,100.00
2022-12-04T11:14:07.294Z,100.00
2022-12-04T11:16:48.175Z,99.93
2022-12-04T11:19:26.039Z,100.00
2022-12-04T11:21:58.753Z,100.00
2022-12-04T11:24:25.147Z,100.00
2022-12-04T11:26:52.391Z,100.00
2022-12-04T11:29:21.914Z,100.00
2022-12-04T11:31:54.760Z,100.00
2022-12-04T11:34:25.011Z,100.00
2022-12-04T11:36:57.527Z,100.00
2022-12-04T11:39:35.913Z,100.00
2022-12-04T11:42:12.570Z,100.00
2022-12-04T11:44:40.389Z,100.00
2022-12-04T11:47:17.410Z,100.00
2022-12-04T11:49:44.108Z,100.00
2022-12-04T11:52:35.010Z,100.00
2022-12-04T11:55:09.155Z,100.00
2022-12-04T11:58:13.093Z,100.00
2022-12-04T12:00:51.363Z,100.00
2022-12-04T12:03:26.394Z,100.00
2022-12-04T12:06:27.182Z,100.00
2022-12-04T12:08:53.566Z,100.00
2022-12-04T12:11:27.204Z,100.00
2022-12-04T12:14:14.274Z,100.00
2022-12-04T12:16:49.976Z,100.00
2022-12-04T12:19:39.702Z,100.00
2022-12-04T12:22:26.560Z,100.00
2022-12-04T12:25:17.011Z,100.00
2022-12-04T12:28:15.168Z,100.00
2022-12-04T12:31:19.710Z,100.00
2022-12-04T12:33:51.863Z,100.00
2022-12-04T12:36:21.710Z,100.00
2022-12-04T12:38:56.791Z,100.00
2022-12-04T12:41:34.699Z,100.00
2022-12-04T12:44:06.042Z,100.00
2022-12-04T12:46:48.804Z,100.00
2022-12-04T12:49:15.291Z,100.00
2022-12-04T12:51:58.333Z,100.00
2022-12-04T12:54:53.256Z,100.00
2022-12-04T12:57:33.400Z,100.00
2022-12-04T13:00:22.251Z,100.00
2022-12-04T13:02:58.168Z,100.00
2022-12-04T13:05:33.733Z,100.00
2022-12-04T13:08:21.664Z,100.00
2022-12-04T13:11:02.151Z,100.00
2022-12-04T13:13:34.328Z,100.00
2022-12-04T13:16:11.187Z,100.00
2022-12-04T13:18:46.108Z,100.00
2022-12-04T13:21:26.331Z,100.00
2022-12-04T13:24:23.807Z,100.00
2022-12-04T13:27:03.894Z,100.00
2022-12-04T13:29:39.459Z,100.00
2022-12-04T13:32:27.794Z,100.00
2022-12-04T13:35:13.219Z,100.00
2022-12-04T13:38:05.069Z,100.00
2022-12-04T13:40:44.943Z,100.00
2022-12-04T13:43:14.182Z,100.00
2022-12-04T13:45:41.388Z,100.00
2022-12-04T13:48:09.878Z,100.00
2022-12-04T13:50:39.406Z,100.00
2022-12-04T13:53:06.888Z,100.00
2022-12-04T13:55:36.611Z,100.00
2022-12-04T13:58:12.007Z,100.00
2022-12-04T14:00:44.060Z,100.00
2022-12-04T14:03:30.283Z,100.00
2022-12-04T14:05:56.932Z,100.00
2022-12-04T14:08:25.906Z,100.00
2022-12-04T14:11:04.059Z,100.00
2022-12-04T14:13:42.399Z,100.00
2022-12-04T14:16:29.903Z,100.00
2022-12-04T14:18:59.254Z,100.00
2022-12-04T14:21:26.519Z,100.00
2022-12-04T14:23:53.470Z,100.00
2022-12-04T14:26:48.894Z,100.00
2022-12-04T14:29:39.432Z,100.00
2022-12-04T14:32:13.603Z,100.00
2022-12-04T14:34:40.653Z,100.00
2022-12-04T14:37:17.453Z,100.00
2022-12-04T14:39:48.217Z,100.00
2022-12-04T14:42:21.844Z,100.00
2022-12-04T14:45:00.848Z,100.00
2022-12-04T14:47:55.340Z,100.00
2022-12-04T14:50:41.993Z,100.00
2022-12-04T14:53:26.546Z,100.00
2022-12-04T14:56:17.127Z,100.00
2022-12-04T14:58:44.147Z,100.00
2022-12-04T15:01:28.310Z,100.00
2022-12-04T15:03:59.087Z,100.00
2022-12-04T15:06:28.182Z,100.00
2022-12-04T15:09:17.263Z,100.00
2022-12-04T15:12:09.670Z,100.00
2022-12-04T15:14:44.997Z,100.00
2022-12-04T15:17:12.910Z,100.00
2022-12-04T15:19:40.075Z,100.00
2022-12-04T15:22:28.640Z,100.00
2022-12-04T15:24:55.949Z,100.00
2022-12-04T15:27:30.534Z,100.00
2022-12-04T15:30:00.302Z,100.00
2022-12-04T15:32:28.804Z,100.00
2022-12-04T15:35:00.854Z,100.00
2022-12-04T15:37:31.040Z,100.00
2022-12-04T15:39:58.413Z,100.00
2022-12-04T15:42:29.973Z,100.00
2022-12-04T15:45:08.624Z,100.00
2022-12-04T15:47:53.619Z,100.00
2022-12-04T15:50:19.991Z,100.00
2022-12-04T15:52:53.587Z,100.00
2022-12-04T15:55:22.392Z,100.00
2022-12-04T15:57:59.725Z,100.00
2022-12-04T16:00:28.448Z,100.00
2022-12-04T16:02:56.110Z,100.00
2022-12-04T16:05:22.482Z,100.00
2022-12-04T16:07:57.741Z,100.00
2022-12-04T16:10:30.585Z,100.00
2022-12-04T16:12:59.459Z,100.00
2022-12-04T16:15:36.135Z,100.00
2022-12-04T16:18:05.992Z,100.00
2022-12-04T16:20:38.106Z,100.00
2022-12-04T16:23:05.460Z,100.00
2022-12-04T16:25:32.315Z,100.00
2022-12-04T16:27:59.994Z,100.00
2022-12-04T16:30:28.335Z,100.00
2022-12-04T16:32:54.796Z,100.00
2022-12-04T16:35:21.474Z,100.00
2022-12-04T16:37:48.010Z,100.00
2022-12-04T16:40:15.418Z,100.00
2022-12-04T16:42:43.774Z,100.00
2022-12-04T16:45:24.924Z,100.00
2022-12-04T16:47:51.791Z,100.00
2022-12-04T16:50:18.551Z,100.00
2022-12-04T16:52:45.068Z,100.00
2022-12-04T16:55:40.906Z,100.00
2022-12-04T16:58:08.243Z,100.00
2022-12-04T17:00:36.423Z,100.00
2022-12-04T17:03:04.432Z,100.00
2022-12-04T17:05:33.430Z,100.00
2022-12-04T17:08:00.557Z,100.00
2022-12-04T17:10:27.444Z,100.00
2022-12-04T17:12:54.568Z,100.00
2022-12-04T17:15:21.526Z,100.00
2022-12-04T17:17:48.406Z,100.00
2022-12-04T17:20:17.156Z,100.00
2022-12-04T17:22:43.696Z,100.00
2022-12-04T17:25:11.232Z,100.00
2022-12-04T17:27:38.448Z,100.00
2022-12-04T17:30:06.730Z,100.00
2022-12-04T17:32:34.922Z,100.00
2022-12-04T17:35:03.600Z,100.00
2022-12-04T17:37:32.380Z,100.00
2022-12-04T17:39:58.933Z,100.00
2022-12-04T17:42:25.695Z,100.00
2022-12-04T17:44:52.175Z,100.00
2022-12-04T17:47:18.636Z,100.00
2022-12-04T17:49:45.073Z,100.00
2022-12-04T17:52:11.502Z,100.00
2022-12-04T17:54:38.111Z,100.00
2022-12-04T17:57:05.103Z,100.00
2022-12-04T17:59:31.680Z,100.00
2022-12-04T18:01:58.112Z,100.00
2022-12-04T18:04:25.000Z,100.00
2022-12-04T18:06:52.599Z,100.00
2022-12-04T18:09:19.351Z,100.00
2022-12-04T18:11:47.831Z,100.00
2022-12-04T18:14:17.523Z,100.00
2022-12-04T18:16:53.262Z,100.00
2022-12-04T18:19:22.207Z,100.00
2022-12-04T18:21:49.463Z,100.00
2022-12-04T18:24:16.796Z,100.00
2022-12-04T18:26:45.518Z,100.00
2022-12-04T18:29:15.406Z,100.00
2022-12-04T18:31:42.262Z,100.00
2022-12-04T18:34:08.885Z,100.00
2022-12-04T18:36:39.253Z,100.00
2022-12-04T18:39:11.354Z,100.00
2022-12-04T18:41:38.037Z,100.00
2022-12-04T18:44:05.636Z,100.00
2022-12-04T18:46:33.033Z,100.00
2022-12-04T18:49:00.159Z,100.00
2022-12-04T18:51:31.554Z,100.00
2022-12-04T18:54:00.739Z,100.00
2022-12-04T18:56:29.243Z,100.00
2022-12-04T18:59:00.831Z,100.00
2022-12-04T19:01:28.638Z,100.00
2022-12-04T19:03:58.696Z,100.00
2022-12-04T19:06:32.454Z,100.00
2022-12-04T19:09:00.722Z,100.00
2022-12-04T19:11:28.786Z,100.00
2022-12-04T19:13:55.611Z,100.00
2022-12-04T19:16:22.377Z,100.00
2022-12-04T19:18:48.915Z,100.00
2022-12-04T19:21:16.386Z,100.00
2022-12-04T19:23:48.344Z,100.00
2022-12-04T19:26:14.791Z,100.00
2022-12-04T19:28:41.246Z,100.00
2022-12-04T19:31:14.977Z,100.00
2022-12-04T19:33:41.601Z,100.00
2022-12-04T19:36:08.512Z,100.00
2022-12-04T19:38:35.490Z,100.00
2022-12-04T19:41:12.622Z,100.00
2022-12-04T19:43:41.601Z,100.00
2022-12-04T19:46:10.225Z,100.00
2022-12-04T19:48:39.968Z,100.00
2022-12-04T19:51:12.239Z,100.00
2022-12-04T19:53:41.052Z,100.00
2022-12-04T19:56:15.005Z,100.00
2022-12-04T19:58:42.477Z,100.00
2022-12-04T20:01:12.951Z,100.00
2022-12-04T20:03:39.941Z,100.00
2022-12-04T20:06:09.825Z,100.00
2022-12-04T20:08:38.077Z,100.00
2022-12-04T20:11:07.791Z,100.00
2022-12-04T20:13:38.921Z,100.00
2022-12-04T20:16:11.477Z,100.00
2022-12-04T20:18:39.892Z,100.00
2022-12-04T20:21:11.133Z,100.00
2022-12-04T20:23:39.233Z,100.00
2022-12-04T20:26:07.900Z,100.00
2022-12-04T20:28:34.699Z,100.00
2022-12-04T20:31:02.256Z,100.00
2022-12-04T20:33:28.708Z,100.00
2022-12-04T20:35:55.465Z,100.00
2022-12-04T20:38:21.934Z,100.00
2022-12-04T20:40:48.381Z,100.00
2022-12-04T20:43:14.836Z,100.00
2022-12-04T20:45:41.467Z,100.00
2022-12-04T20:48:08.468Z,100.00
2022-12-04T20:50:36.142Z,100.00
2022-12-04T20:53:07.609Z,100.00
2022-12-04T20:55:34.172Z,100.00
2022-12-04T20:58:00.639Z,100.00
2022-12-04T21:00:28.635Z,100.00
2022-12-04T21:02:55.125Z,100.00
2022-12-04T21:05:21.938Z,100.00
2022-12-04T21:07:48.393Z,100.00
2022-12-04T21:10:15.007Z,100.00
2022-12-04T21:13:00.238Z,100.00
2022-12-04T21:15:48.230Z,100.00
2022-12-04T21:18:14.747Z,100.00
2022-12-04T21:20:41.224Z,100.00
2022-12-04T21:23:07.836Z,100.00
2022-12-04T21:25:34.234Z,100.00
2022-12-04T21:28:03.003Z,100.00
2022-12-04T21:30:29.524Z,100.00
2022-12-04T21:32:55.991Z,100.00
2022-12-04T21:35:22.452Z,100.00
2022-12-04T21:37:48.866Z,100.00
2022-12-04T21:40:15.446Z,100.00
2022-12-04T21:42:43.780Z,100.00
2022-12-04T21:45:10.607Z,100.00
2022-12-04T21:47:37.500Z,100.00
2022-12-04T21:50:05.552Z,100.00
2022-12-04T21:52:32.456Z,100.00
2022-12-04T21:54:58.927Z,100.00
2022-12-04T21:57:27.423Z,100.00
2022-12-04T21:59:54.004Z,100.00
2022-12-04T22:02:21.182Z,100.00
2022-12-04T22:04:47.807Z,100.00
2022-12-04T22:07:14.290Z,100.00
2022-12-04T22:09:42.404Z,100.00
2022-12-04T22:12:33.195Z,100.00
2022-12-04T22:14:56.082Z,100.00
2022-12-04T22:17:22.535Z,100.00
2022-12-04T22:19:48.991Z,100.00
2022-12-04T22:22:15.440Z,100.00
2022-12-04T22:24:42.079Z,100.00
2022-12-04T22:27:14.741Z,100.00
2022-12-04T22:30:02.133Z,100.00
2022-12-04T22:32:27.924Z,100.00
2022-12-04T22:34:54.372Z,100.00
2022-12-04T22:37:20.788Z,100.00
2022-12-04T22:39:47.329Z,100.00
2022-12-04T22:42:13.794Z,100.00
2022-12-04T22:44:40.239Z,100.00
2022-12-04T22:47:06.950Z,100.00
2022-12-04T22:49:33.564Z,100.00
2022-12-04T22:52:00.021Z,100.00
2022-12-04T22:54:27.907Z,100.00
2022-12-04T22:56:54.407Z,100.00
2022-12-04T22:59:20.877Z,100.00
2022-12-04T23:01:47.295Z,100.00
2022-12-04T23:04:13.730Z,100.00
2022-12-04T23:06:40.213Z,100.00
2022-12-04T23:09:12.639Z,100.00
2022-12-04T23:11:40.154Z,100.00
2022-12-04T23:14:09.113Z,100.00
2022-12-04T23:16:38.356Z,100.00
2022-12-04T23:19:07.518Z,100.00
2022-12-04T23:21:34.729Z,100.00
2022-12-04T23:24:01.361Z,100.00
2022-12-04T23:26:32.584Z,100.00
2022-12-04T23:28:59.484Z,100.00
2022-12-04T23:31:26.012Z,100.00
2022-12-04T23:33:52.635Z,100.00
2022-12-04T23:36:19.388Z,100.00
2022-12-04T23:38:46.356Z,100.00
2022-12-04T23:41:18.356Z,100.00
2022-12-04T23:43:45.410Z,100.00
2022-12-04T23:46:14.739Z,100.00
2022-12-04T23:48:43.849Z,100.00
2022-12-04T23:51:12.696Z,100.00
2022-12-04T23:53:39.183Z,100.00
2022-12-04T23:56:23.779Z,100.00
2022-12-04T23:58:52.681Z,100.00
